Time;durP1;ratioP1;P1;durP2;ratioP2;P2;SDS_P1;SDS_P2;PMS_P1;PMS_P2;Temp;Humidity;BMP_temperature;BMP_pressure;BME280_temperature;BME280_humidity;BME280_pressure;Samples;Min_cycle;Max_cycle;Signal;HPM_P1;HPM_P2
2023/04/23 00:00:29;;;;;;;51.57;27.13;;;;;;;;;;5030578;28;20566;-67
2023/04/23 00:02:56;;;;;;;47.77;26.33;;;;;;;;;;5030740;28;20423;-67
2023/04/23 00:05:24;;;;;;;52.50;27.87;;;;;;;;;;5030733;28;20426;-67
2023/04/23 00:07:51;;;;;;;53.67;25.97;;;;;;;;;;5013247;28;20504;-67
2023/04/23 00:10:18;;;;;;;47.47;26.33;;;;;;;;;;5030955;28;20426;-68
2023/04/23 00:12:44;;;;;;;48.67;25.30;;;;;;;;;;5013203;28;20434;-68
2023/04/23 00:15:12;;;;;;;54.67;27.63;;;;;;;;;;5030547;28;20441;-68
2023/04/23 00:17:38;;;;;;;48.63;24.93;;;;;;;;;;5030552;28;20231;-68
2023/04/23 00:20:05;;;;;;;49.60;24.50;;;;;;;;;;5030373;28;20426;-68
2023/04/23 00:22:32;;;;;;;49.00;24.97;;;;;;;;;;5030513;28;20434;-68
2023/04/23 00:24:59;;;;;;;49.27;25.37;;;;;;;;;;5012863;28;20956;-68
2023/04/23 00:27:26;;;;;;;53.03;25.83;;;;;;;;;;5030257;28;20249;-68
2023/04/23 00:29:53;;;;;;;49.80;24.63;;;;;;;;;;5030375;28;20433;-68
2023/04/23 00:32:21;;;;;;;42.87;24.07;;;;;;;;;;5030434;28;20211;-68
2023/04/23 00:34:48;;;;;;;44.70;24.87;;;;;;;;;;5030181;28;20215;-68
2023/04/23 00:37:15;;;;;;;45.37;24.90;;;;;;;;;;5029992;28;20185;-68
2023/04/23 00:39:42;;;;;;;46.47;25.73;;;;;;;;;;5030102;28;20921;-68
2023/04/23 00:42:12;;;;;;;48.77;26.13;;;;;;;;;;5012354;28;20430;-68
2023/04/23 00:44:39;;;;;;;60.27;30.97;;;;;;;;;;5030200;28;20434;-69
2023/04/23 00:47:06;;;;;;;56.33;31.57;;;;;;;;;;5011731;28;20993;-68
2023/04/23 00:49:33;;;;;;;49.50;29.63;;;;;;;;;;4995943;28;20659;-68
2023/04/23 00:52:00;;;;;;;50.93;27.47;;;;;;;;;;5030160;28;20996;-68
2023/04/23 00:54:27;;;;;;;50.87;28.13;;;;;;;;;;5012148;28;20802;-68
2023/04/23 00:56:54;;;;;;;47.40;27.30;;;;;;;;;;5011917;28;20187;-68
2023/04/23 00:59:21;;;;;;;53.30;27.33;;;;;;;;;;5012042;28;21003;-68
2023/04/23 01:01:47;;;;;;;50.83;28.23;;;;;;;;;;5029512;28;21170;-69
2023/04/23 01:04:15;;;;;;;47.80;27.57;;;;;;;;;;5012382;28;20545;-68
2023/04/23 01:06:41;;;;;;;48.67;27.73;;;;;;;;;;5030024;28;20442;-68
2023/04/23 01:09:11;;;;;;;47.80;27.80;;;;;;;;;;5012119;28;20528;-68
2023/04/23 01:11:38;;;;;;;45.53;26.57;;;;;;;;;;4995986;28;20654;-68
2023/04/23 01:14:05;;;;;;;40.63;24.77;;;;;;;;;;5030081;28;21008;-69
2023/04/23 01:16:32;;;;;;;40.43;24.57;;;;;;;;;;5011968;28;20434;-68
2023/04/23 01:18:58;;;;;;;46.70;25.43;;;;;;;;;;5029637;28;20552;-68
2023/04/23 01:21:25;;;;;;;40.80;25.07;;;;;;;;;;5029408;28;20298;-68
2023/04/23 01:23:52;;;;;;;41.10;24.93;;;;;;;;;;5029473;28;21021;-68
2023/04/23 01:26:19;;;;;;;41.47;24.17;;;;;;;;;;5029410;28;20484;-68
2023/04/23 01:28:46;;;;;;;40.67;24.33;;;;;;;;;;5029222;28;20931;-69
2023/04/23 01:31:13;;;;;;;38.03;23.10;;;;;;;;;;4995476;28;20438;-68
2023/04/23 01:33:40;;;;;;;40.33;21.73;;;;;;;;;;5012405;28;20426;-68
2023/04/23 01:36:07;;;;;;;43.30;23.30;;;;;;;;;;5029184;28;20418;-68
2023/04/23 01:38:35;;;;;;;36.40;22.13;;;;;;;;;;5029200;28;20437;-69
2023/04/23 01:41:01;;;;;;;44.20;22.97;;;;;;;;;;4995651;28;20422;-68
2023/04/23 02:15:21;;;;;;;33.33;19.30;;;;;;;;;;5032831;28;20444;-69
2023/04/23 02:17:51;;;;;;;40.80;20.27;;;;;;;;;;5014393;28;20474;-68
2023/04/23 02:20:18;;;;;;;37.87;20.27;;;;;;;;;;5015873;28;20426;-68
2023/04/23 02:22:45;;;;;;;37.97;20.03;;;;;;;;;;5032609;28;20971;-68
2023/04/23 02:25:14;;;;;;;37.87;19.60;;;;;;;;;;4998840;28;20448;-68
2023/04/23 02:27:41;;;;;;;36.17;18.73;;;;;;;;;;5032631;28;20453;-68
2023/04/23 02:30:08;;;;;;;36.30;19.50;;;;;;;;;;5032286;28;20517;-68
2023/04/23 02:32:36;;;;;;;37.50;18.73;;;;;;;;;;5014643;28;20434;-68
2023/04/23 02:35:05;;;;;;;36.37;18.80;;;;;;;;;;5014843;28;20473;-68
2023/04/23 02:37:32;;;;;;;37.23;17.70;;;;;;;;;;5032436;28;20787;-68
2023/04/23 02:39:58;;;;;;;41.87;19.93;;;;;;;;;;5015038;28;20470;-68
2023/04/23 02:42:25;;;;;;;33.20;17.37;;;;;;;;;;5032335;28;20461;-68
2023/04/23 02:44:52;;;;;;;34.73;18.67;;;;;;;;;;5014457;28;20478;-68
2023/04/23 02:47:19;;;;;;;36.10;18.67;;;;;;;;;;5014599;28;20434;-68
2023/04/23 02:49:46;;;;;;;36.23;18.13;;;;;;;;;;5032052;28;20434;-68
2023/04/23 02:52:12;;;;;;;42.57;20.70;;;;;;;;;;5014313;28;20442;-68
2023/04/23 02:54:39;;;;;;;35.30;18.30;;;;;;;;;;5014471;28;20944;-68
2023/04/23 02:57:06;;;;;;;38.70;18.83;;;;;;;;;;4997898;28;20495;-69
2023/04/23 02:59:33;;;;;;;38.03;19.50;;;;;;;;;;5014320;28;20846;-68
2023/04/23 03:02:00;;;;;;;44.60;22.57;;;;;;;;;;5014140;28;20503;-68
2023/04/23 03:04:27;;;;;;;40.50;21.23;;;;;;;;;;5031801;28;20438;-68
2023/04/23 03:06:54;;;;;;;39.10;19.43;;;;;;;;;;5014168;28;20441;-68
2023/04/23 03:09:21;;;;;;;36.43;19.50;;;;;;;;;;5031819;28;20465;-68
2023/04/23 03:11:48;;;;;;;36.63;18.97;;;;;;;;;;5013947;28;20445;-68
2023/04/23 03:14:15;;;;;;;34.33;18.50;;;;;;;;;;5031887;28;20465;-68
2023/04/23 03:16:42;;;;;;;37.03;18.93;;;;;;;;;;5013970;28;20438;-68
2023/04/23 03:19:09;;;;;;;38.03;19.73;;;;;;;;;;5013481;28;20485;-68
2023/04/23 03:21:35;;;;;;;43.57;21.50;;;;;;;;;;5031758;28;20813;-68
2023/04/23 03:24:02;;;;;;;43.97;22.23;;;;;;;;;;5013792;28;20841;-68
2023/04/23 03:26:29;;;;;;;39.97;20.67;;;;;;;;;;5031514;28;20436;-68
2023/04/23 03:28:56;;;;;;;45.73;21.43;;;;;;;;;;5031457;28;20556;-68
2023/04/23 03:31:22;;;;;;;39.23;19.20;;;;;;;;;;5013612;28;20438;-68
2023/04/23 03:33:50;;;;;;;37.40;19.47;;;;;;;;;;5013786;28;20446;-67
2023/04/23 03:36:22;;;;;;;39.77;18.43;;;;;;;;;;5013714;28;20813;-68
2023/04/23 03:38:49;;;;;;;37.17;18.43;;;;;;;;;;5031044;28;20426;-68
2023/04/23 03:41:17;;;;;;;39.97;19.33;;;;;;;;;;4996516;28;20439;-67
2023/04/23 03:43:44;;;;;;;37.70;18.37;;;;;;;;;;5011478;28;20489;-67
2023/04/23 03:46:20;;;;;;;33.20;18.20;;;;;;;;;;4993954;28;20450;-67
2023/04/23 03:48:46;;;;;;;37.57;17.93;;;;;;;;;;5011077;28;20866;-68
2023/04/23 03:51:21;;;;;;;33.63;18.17;;;;;;;;;;4993695;28;20438;-67
2023/04/23 03:53:49;;;;;;;35.90;18.57;;;;;;;;;;4993761;28;20443;-68
2023/04/23 03:56:32;;;;;;;33.70;18.37;;;;;;;;;;4980013;28;20458;-68
2023/04/23 03:59:20;;;;;;;36.27;17.63;;;;;;;;;;5010613;28;20953;-68
2023/04/23 04:01:49;;;;;;;29.77;16.00;;;;;;;;;;4993381;28;20517;-68
2023/04/23 04:04:16;;;;;;;27.77;15.90;;;;;;;;;;4994033;28;20547;-69
2023/04/23 04:06:44;;;;;;;35.27;17.07;;;;;;;;;;4993696;28;20458;-69
2023/04/23 04:09:10;;;;;;;32.57;16.73;;;;;;;;;;5010873;28;20525;-69
2023/04/23 04:11:37;;;;;;;32.67;17.93;;;;;;;;;;5010647;28;20434;-68
2023/04/23 04:14:04;;;;;;;32.77;19.93;;;;;;;;;;4993619;28;20466;-68
2023/04/23 04:16:30;;;;;;;32.20;17.33;;;;;;;;;;5010868;28;20431;-68
2023/04/23 04:18:57;;;;;;;40.43;20.50;;;;;;;;;;5028099;28;20493;-68
2023/04/23 04:21:24;;;;;;;34.23;20.43;;;;;;;;;;5030844;28;20453;-69
2023/04/23 04:23:52;;;;;;;33.50;18.30;;;;;;;;;;5030597;28;20198;-68
2023/04/23 04:26:19;;;;;;;37.13;19.40;;;;;;;;;;5030722;28;20187;-68
2023/04/23 04:28:45;;;;;;;31.10;17.77;;;;;;;;;;5030351;28;20219;-68
2023/04/23 04:31:14;;;;;;;35.43;16.90;;;;;;;;;;5030459;28;20694;-68
2023/04/23 04:33:42;;;;;;;32.70;17.73;;;;;;;;;;5030383;28;20187;-69
2023/04/23 04:36:08;;;;;;;36.53;18.93;;;;;;;;;;5030307;28;20274;-68
2023/04/23 04:38:36;;;;;;;27.27;17.73;;;;;;;;;;5030208;28;20250;-69
2023/04/23 04:41:03;;;;;;;29.90;16.90;;;;;;;;;;5029995;28;20210;-68
2023/04/23 04:43:31;;;;;;;30.77;17.00;;;;;;;;;;5029973;28;20253;-68
2023/04/23 04:45:58;;;;;;;27.67;16.87;;;;;;;;;;5030259;28;20198;-69
2023/04/23 04:48:24;;;;;;;27.83;16.27;;;;;;;;;;5030067;28;20257;-68
2023/04/23 04:50:51;;;;;;;24.77;15.97;;;;;;;;;;5029984;28;20198;-68
2023/04/23 04:53:18;;;;;;;27.23;15.63;;;;;;;;;;5030021;28;20188;-69
2023/04/23 04:55:45;;;;;;;24.23;14.67;;;;;;;;;;5029977;28;20215;-68
2023/04/23 04:58:12;;;;;;;24.53;15.77;;;;;;;;;;5029934;28;20712;-68
2023/04/23 05:00:38;;;;;;;27.10;14.37;;;;;;;;;;5030248;28;20190;-68
2023/04/23 05:03:05;;;;;;;22.23;14.17;;;;;;;;;;5029703;28;20564;-68
2023/04/23 05:05:32;;;;;;;23.63;13.77;;;;;;;;;;5012608;28;20167;-68
2023/04/23 05:08:01;;;;;;;21.87;13.40;;;;;;;;;;5012202;28;20203;-68
2023/04/23 05:10:28;;;;;;;20.40;12.90;;;;;;;;;;5029673;28;20195;-68
2023/04/23 05:12:55;;;;;;;24.87;14.50;;;;;;;;;;5029662;28;20180;-68
2023/04/23 05:15:23;;;;;;;19.90;13.17;;;;;;;;;;5012136;28;20734;-68
2023/04/23 05:17:52;;;;;;;18.37;12.30;;;;;;;;;;5011978;28;20306;-69
2023/04/23 05:20:19;;;;;;;20.20;12.90;;;;;;;;;;5029472;28;20203;-68
2023/04/23 05:22:46;;;;;;;17.90;12.03;;;;;;;;;;5028657;28;20199;-67
2023/04/23 05:25:13;;;;;;;17.23;11.47;;;;;;;;;;5012045;28;20195;-68
2023/04/23 05:27:39;;;;;;;19.53;13.00;;;;;;;;;;5029501;28;20559;-68
2023/04/23 05:30:08;;;;;;;19.97;13.07;;;;;;;;;;5028874;28;20223;-68
2023/04/23 05:32:35;;;;;;;16.67;11.40;;;;;;;;;;5029518;28;20214;-68
2023/04/23 05:35:02;;;;;;;18.33;11.30;;;;;;;;;;5029756;28;20632;-68
2023/04/23 05:37:29;;;;;;;18.70;11.07;;;;;;;;;;5029542;28;20245;-68
2023/04/23 05:39:57;;;;;;;13.30;10.13;;;;;;;;;;5023416;28;20180;-68
2023/04/23 05:42:23;;;;;;;17.20;10.43;;;;;;;;;;5009757;28;20191;-69
2023/04/23 05:44:50;;;;;;;15.10;10.20;;;;;;;;;;5009314;28;20196;-68
2023/04/23 05:47:17;;;;;;;18.30;10.37;;;;;;;;;;5009800;28;20184;-67
2023/04/23 05:49:43;;;;;;;16.97;10.50;;;;;;;;;;5009524;28;20765;-68
2023/04/23 05:52:10;;;;;;;17.97;10.70;;;;;;;;;;5009708;28;20241;-68
2023/04/23 05:54:37;;;;;;;14.53;10.20;;;;;;;;;;5009581;28;20188;-68
2023/04/23 05:57:04;;;;;;;14.73;9.10;;;;;;;;;;5009540;28;20196;-68
2023/04/23 05:59:32;;;;;;;13.17;9.37;;;;;;;;;;5009811;28;21010;-68
2023/04/23 06:01:59;;;;;;;14.77;9.67;;;;;;;;;;4992018;28;20592;-68
2023/04/23 06:04:25;;;;;;;15.33;8.57;;;;;;;;;;4991982;28;20246;-67
2023/04/23 06:06:53;;;;;;;12.07;8.50;;;;;;;;;;5009459;28;20409;-68
2023/04/23 06:09:20;;;;;;;16.37;9.53;;;;;;;;;;5009405;28;20291;-68
2023/04/23 06:11:49;;;;;;;12.77;8.60;;;;;;;;;;4991338;28;20547;-68
2023/04/23 06:14:16;;;;;;;18.27;8.63;;;;;;;;;;5009409;28;20282;-68
2023/04/23 06:16:42;;;;;;;16.30;8.70;;;;;;;;;;5009380;28;20192;-68
2023/04/23 06:19:10;;;;;;;14.87;8.67;;;;;;;;;;5027924;28;20314;-68
2023/04/23 06:21:38;;;;;;;14.50;8.03;;;;;;;;;;5011171;28;20183;-68
2023/04/23 06:24:06;;;;;;;11.87;7.40;;;;;;;;;;5028829;28;20237;-68
2023/04/23 06:26:32;;;;;;;10.37;7.37;;;;;;;;;;5029023;28;20234;-68
2023/04/23 06:29:07;;;;;;;13.33;7.80;;;;;;;;;;4995775;28;20222;-68
2023/04/23 06:31:47;;;;;;;10.57;7.13;;;;;;;;;;5010951;28;20606;-68
2023/04/23 06:34:13;;;;;;;10.83;6.60;;;;;;;;;;5029573;28;20192;-68
2023/04/23 06:36:42;;;;;;;10.83;6.47;;;;;;;;;;5014914;28;20266;-69
2023/04/23 06:39:12;;;;;;;11.43;7.10;;;;;;;;;;5032507;28;20191;-68
2023/04/23 06:41:38;;;;;;;13.73;7.20;;;;;;;;;;5012973;28;20188;-68
2023/04/23 06:44:12;;;;;;;9.73;7.03;;;;;;;;;;5011312;28;20214;-68
2023/04/23 06:46:47;;;;;;;11.07;7.40;;;;;;;;;;5012418;28;20211;-68
2023/04/23 06:49:14;;;;;;;8.57;5.67;;;;;;;;;;5003360;28;20226;-68
2023/04/23 06:51:41;;;;;;;8.60;5.63;;;;;;;;;;5012490;28;20192;-69
2023/04/23 06:54:08;;;;;;;7.43;5.67;;;;;;;;;;5012555;28;20188;-69
2023/04/23 06:56:35;;;;;;;8.27;5.43;;;;;;;;;;5012520;28;20188;-68
2023/04/23 06:59:02;;;;;;;8.17;6.20;;;;;;;;;;5012543;28;20203;-68
2023/04/23 07:01:30;;;;;;;8.73;6.00;;;;;;;;;;5027384;28;20203;-68
2023/04/23 07:03:57;;;;;;;9.50;6.00;;;;;;;;;;5012397;28;20200;-69
2023/04/23 07:06:24;;;;;;;8.53;6.07;;;;;;;;;;5012562;28;20192;-68
2023/04/23 07:08:51;;;;;;;9.03;6.20;;;;;;;;;;5012113;28;20204;-69
2023/04/23 07:11:17;;;;;;;8.67;5.80;;;;;;;;;;5012262;28;20188;-68
2023/04/23 07:13:44;;;;;;;8.50;5.87;;;;;;;;;;4994633;28;20208;-69
2023/04/23 07:16:11;;;;;;;9.30;6.17;;;;;;;;;;5012113;28;20246;-69
2023/04/23 07:18:38;;;;;;;9.27;5.80;;;;;;;;;;5011791;28;20231;-69
2023/04/23 07:21:05;;;;;;;6.90;5.50;;;;;;;;;;5011914;28;20212;-69
2023/04/23 07:23:31;;;;;;;8.97;6.07;;;;;;;;;;5012060;28;20254;-68
2023/04/23 07:25:58;;;;;;;8.73;5.57;;;;;;;;;;5011513;28;20214;-69
2023/04/23 07:28:25;;;;;;;10.90;5.50;;;;;;;;;;5012134;28;20193;-68
2023/04/23 07:30:51;;;;;;;8.27;5.40;;;;;;;;;;5011709;28;20224;-69
2023/04/23 07:33:18;;;;;;;6.73;5.60;;;;;;;;;;5011792;28;20273;-69
2023/04/23 07:35:45;;;;;;;8.77;5.90;;;;;;;;;;5011831;28;20193;-68
2023/04/23 07:38:12;;;;;;;8.17;5.67;;;;;;;;;;5011874;28;20291;-68
2023/04/23 07:40:38;;;;;;;8.77;5.43;;;;;;;;;;5023471;28;20666;-69
2023/04/23 07:43:05;;;;;;;8.83;5.67;;;;;;;;;;5031667;28;20246;-69
2023/04/23 07:45:32;;;;;;;7.47;5.17;;;;;;;;;;5030639;28;20310;-69
2023/04/23 07:47:59;;;;;;;8.00;5.90;;;;;;;;;;5030223;28;20216;-69
2023/04/23 07:50:28;;;;;;;11.07;5.57;;;;;;;;;;5031089;28;20216;-69
2023/04/23 07:52:55;;;;;;;8.37;6.03;;;;;;;;;;5013722;28;20274;-69
2023/04/23 07:55:22;;;;;;;8.80;6.17;;;;;;;;;;5031294;28;20198;-69
2023/04/23 07:57:49;;;;;;;10.70;5.97;;;;;;;;;;5031083;28;20242;-69
2023/04/23 08:00:15;;;;;;;8.70;6.20;;;;;;;;;;5030803;28;20188;-69
2023/04/23 08:02:43;;;;;;;8.23;6.23;;;;;;;;;;5013545;28;20188;-69
2023/04/23 08:05:10;;;;;;;10.43;6.70;;;;;;;;;;5030880;28;20187;-69
2023/04/23 08:07:38;;;;;;;10.70;6.47;;;;;;;;;;5030882;28;20203;-69
2023/04/23 08:10:05;;;;;;;10.77;6.60;;;;;;;;;;5031059;28;20749;-69
2023/04/23 08:12:33;;;;;;;8.43;6.30;;;;;;;;;;5030666;28;20195;-69
2023/04/23 08:15:00;;;;;;;9.30;6.60;;;;;;;;;;5030805;28;20183;-69
2023/04/23 08:17:34;;;;;;;8.63;5.40;;;;;;;;;;5030450;28;20224;-69
2023/04/23 08:20:02;;;;;;;8.60;5.87;;;;;;;;;;5030623;28;20215;-69
2023/04/23 08:22:29;;;;;;;8.80;6.07;;;;;;;;;;5013105;28;20734;-70
2023/04/23 08:24:56;;;;;;;7.03;5.47;;;;;;;;;;5031025;28;20191;-70
2023/04/23 08:27:22;;;;;;;12.70;6.30;;;;;;;;;;4996736;28;20183;-68
2023/04/23 08:29:50;;;;;;;7.93;5.57;;;;;;;;;;5030231;28;20224;-69
2023/04/23 08:32:17;;;;;;;8.50;5.57;;;;;;;;;;5030018;28;20219;-69
2023/04/23 08:34:44;;;;;;;6.93;5.40;;;;;;;;;;5030491;28;20270;-68
2023/04/23 08:37:10;;;;;;;7.27;5.60;;;;;;;;;;5030384;28;20654;-68
2023/04/23 08:39:55;;;;;;;9.57;5.60;;;;;;;;;;5024410;28;20273;-68
2023/04/23 08:42:31;;;;;;;8.90;5.27;;;;;;;;;;5010410;28;20188;-68
2023/04/23 08:44:58;;;;;;;7.43;4.70;;;;;;;;;;5010540;28;20242;-68
2023/04/23 08:47:25;;;;;;;5.67;4.93;;;;;;;;;;5010168;28;20291;-68
2023/04/23 08:49:52;;;;;;;6.77;4.97;;;;;;;;;;4993124;28;20214;-68
2023/04/23 08:52:22;;;;;;;9.00;5.40;;;;;;;;;;4992958;28;20549;-68
2023/04/23 08:54:51;;;;;;;8.17;5.20;;;;;;;;;;5010374;28;20214;-69
2023/04/23 08:57:18;;;;;;;6.57;4.50;;;;;;;;;;4992824;28;20192;-68
2023/04/23 08:59:45;;;;;;;7.57;4.90;;;;;;;;;;4992684;28;20210;-69
2023/04/23 09:02:12;;;;;;;6.73;4.93;;;;;;;;;;5010055;28;20183;-68
2023/04/23 09:04:38;;;;;;;6.93;4.70;;;;;;;;;;4992602;28;20225;-69
2023/04/23 09:07:09;;;;;;;8.50;4.83;;;;;;;;;;5010349;28;20191;-69
2023/04/23 09:09:39;;;;;;;6.73;4.93;;;;;;;;;;5010090;28;20659;-69
2023/04/23 09:12:07;;;;;;;7.53;4.87;;;;;;;;;;5009932;28;20207;-68
2023/04/23 09:14:34;;;;;;;7.07;5.27;;;;;;;;;;4992551;28;20187;-68
2023/04/23 09:17:01;;;;;;;6.07;4.70;;;;;;;;;;4993389;28;20191;-69
2023/04/23 09:19:27;;;;;;;7.73;4.70;;;;;;;;;;5029577;28;20253;-68
2023/04/23 09:21:54;;;;;;;8.67;4.70;;;;;;;;;;5029578;28;20205;-68
2023/04/23 09:24:21;;;;;;;8.20;4.20;;;;;;;;;;5029706;28;20669;-70
2023/04/23 09:26:49;;;;;;;6.27;4.07;;;;;;;;;;5029522;28;20182;-68
2023/04/23 09:29:17;;;;;;;6.40;3.87;;;;;;;;;;5029515;28;20552;-67
2023/04/23 09:31:46;;;;;;;6.57;4.53;;;;;;;;;;5011903;28;20189;-69
2023/04/23 09:34:19;;;;;;;6.13;4.23;;;;;;;;;;5029472;28;20249;-69
2023/04/23 09:36:49;;;;;;;5.83;4.17;;;;;;;;;;5011726;28;20413;-69
2023/04/23 09:39:17;;;;;;;8.13;3.90;;;;;;;;;;5029371;28;20187;-68
2023/04/23 09:41:46;;;;;;;4.30;3.43;;;;;;;;;;5011886;28;20192;-68
2023/04/23 09:44:22;;;;;;;7.97;3.87;;;;;;;;;;5012349;28;20187;-68
2023/04/23 09:46:49;;;;;;;7.17;3.87;;;;;;;;;;5011706;28;20202;-69
2023/04/23 09:49:16;;;;;;;4.50;3.40;;;;;;;;;;5029498;28;20199;-68
2023/04/23 09:51:44;;;;;;;5.77;3.43;;;;;;;;;;4995401;28;20261;-68
2023/04/23 09:54:12;;;;;;;9.13;3.87;;;;;;;;;;5029228;28;20190;-68
2023/04/23 09:56:39;;;;;;;6.60;3.50;;;;;;;;;;5011503;28;20191;-68
2023/04/23 09:59:18;;;;;;;6.83;3.90;;;;;;;;;;5011569;28;20207;-69
2023/04/23 10:01:49;;;;;;;8.07;3.97;;;;;;;;;;5029021;28;20654;-68
2023/04/23 10:04:17;;;;;;;5.73;4.17;;;;;;;;;;5029604;28;20183;-68
2023/04/23 10:06:44;;;;;;;6.63;4.03;;;;;;;;;;5012709;28;20183;-68
2023/04/23 10:09:31;;;;;;;5.13;3.73;;;;;;;;;;5031998;28;20194;-69
2023/04/23 10:11:58;;;;;;;7.07;4.67;;;;;;;;;;5033470;28;20812;-68
2023/04/23 10:14:25;;;;;;;7.60;4.60;;;;;;;;;;5015684;28;20183;-68
2023/04/23 10:16:52;;;;;;;4.90;4.07;;;;;;;;;;5032546;28;20594;-69
2023/04/23 10:19:21;;;;;;;7.13;4.60;;;;;;;;;;5015574;28;20209;-68
2023/04/23 10:21:56;;;;;;;5.43;4.20;;;;;;;;;;5032508;28;20191;-69
2023/04/23 10:24:42;;;;;;;6.27;4.50;;;;;;;;;;5015109;28;20198;-69
2023/04/23 10:27:12;;;;;;;5.60;3.73;;;;;;;;;;5015144;28;20197;-69
2023/04/23 10:29:54;;;;;;;10.13;4.67;;;;;;;;;;5032661;28;20246;-68
2023/04/23 10:32:46;;;;;;;5.53;4.30;;;;;;;;;;5014989;28;20582;-68
2023/04/23 10:35:14;;;;;;;9.73;4.43;;;;;;;;;;5032489;28;20195;-69
2023/04/23 10:37:41;;;;;;;8.43;4.40;;;;;;;;;;5032560;28;20184;-69
2023/04/23 10:40:10;;;;;;;5.63;4.03;;;;;;;;;;5024881;28;20518;-69
2023/04/23 10:42:37;;;;;;;9.87;3.90;;;;;;;;;;5012585;28;20245;-69
2023/04/23 10:45:12;;;;;;;10.70;3.77;;;;;;;;;;5012630;28;20214;-69
2023/04/23 10:47:51;;;;;;;7.87;4.03;;;;;;;;;;5012598;28;20710;-68
2023/04/23 10:50:21;;;;;;;5.40;3.60;;;;;;;;;;4995133;28;20595;-69
2023/04/23 10:52:58;;;;;;;4.53;3.17;;;;;;;;;;5012511;28;20192;-68
2023/04/23 10:55:25;;;;;;;5.27;3.13;;;;;;;;;;5012570;28;20188;-67
2023/04/23 10:58:02;;;;;;;4.60;2.30;;;;;;;;;;5012492;28;20188;-67
2023/04/23 11:00:51;;;;;;;3.80;2.53;;;;;;;;;;5012264;28;20722;-67
2023/04/23 11:03:41;;;;;;;8.23;3.00;;;;;;;;;;5012523;28;20647;-69
2023/04/23 11:06:14;;;;;;;5.43;3.37;;;;;;;;;;5001894;28;20207;-69
2023/04/23 11:08:52;;;;;;;3.97;2.87;;;;;;;;;;4994647;28;20203;-67
2023/04/23 11:11:23;;;;;;;4.37;3.10;;;;;;;;;;5012080;28;20211;-68
2023/04/23 11:13:50;;;;;;;5.73;3.30;;;;;;;;;;4978286;28;20463;-69
2023/04/23 11:16:20;;;;;;;7.33;3.53;;;;;;;;;;4995059;28;20180;-69
2023/04/23 11:18:56;;;;;;;4.77;3.20;;;;;;;;;;5027634;28;20231;-68
2023/04/23 11:21:43;;;;;;;7.37;3.50;;;;;;;;;;5030618;28;20190;-68
2023/04/23 11:24:11;;;;;;;5.20;3.40;;;;;;;;;;5031165;28;20639;-68
2023/04/23 11:26:37;;;;;;;4.33;2.90;;;;;;;;;;4998028;28;20273;-68
2023/04/23 11:29:04;;;;;;;3.30;2.53;;;;;;;;;;4997865;28;20195;-67
2023/04/23 11:31:31;;;;;;;5.13;3.07;;;;;;;;;;5031570;28;20208;-68
2023/04/23 11:33:57;;;;;;;4.20;2.87;;;;;;;;;;5031855;28;20196;-67
2023/04/23 11:36:24;;;;;;;5.17;3.00;;;;;;;;;;5031464;28;20194;-68
2023/04/23 11:38:55;;;;;;;4.43;3.00;;;;;;;;;;5013914;28;20211;-69
2023/04/23 11:41:22;;;;;;;4.70;2.60;;;;;;;;;;5031086;28;20710;-67
2023/04/23 11:43:48;;;;;;;6.43;3.10;;;;;;;;;;5031223;28;20182;-67
2023/04/23 11:46:15;;;;;;;7.17;2.87;;;;;;;;;;5031424;28;20224;-69
2023/04/23 11:48:42;;;;;;;7.40;2.90;;;;;;;;;;5013578;28;20194;-67
2023/04/23 11:51:08;;;;;;;5.13;3.10;;;;;;;;;;5013487;28;20279;-67
2023/04/23 11:53:35;;;;;;;4.53;3.03;;;;;;;;;;5031017;28;20186;-69
2023/04/23 11:56:04;;;;;;;3.10;2.73;;;;;;;;;;5031117;28;20287;-67
2023/04/23 11:58:30;;;;;;;5.93;3.13;;;;;;;;;;5030944;28;20730;-68
2023/04/23 12:01:01;;;;;;;4.77;3.03;;;;;;;;;;5031118;28;20640;-68
2023/04/23 12:03:28;;;;;;;5.13;2.97;;;;;;;;;;5030826;28;20216;-68
2023/04/23 12:05:55;;;;;;;4.60;3.00;;;;;;;;;;5031200;28;20188;-67
2023/04/23 12:08:22;;;;;;;5.87;3.07;;;;;;;;;;5013334;28;20233;-67
2023/04/23 12:10:49;;;;;;;3.37;2.97;;;;;;;;;;5030599;28;20264;-68
2023/04/23 12:13:16;;;;;;;4.70;3.00;;;;;;;;;;5030667;28;20191;-67
2023/04/23 12:15:48;;;;;;;4.50;3.33;;;;;;;;;;5030735;28;20694;-68
2023/04/23 12:18:15;;;;;;;5.83;3.40;;;;;;;;;;5030319;28;20279;-68
2023/04/23 12:20:43;;;;;;;5.37;3.40;;;;;;;;;;5030714;28;20191;-67
2023/04/23 12:23:09;;;;;;;6.40;3.40;;;;;;;;;;5030447;28;20191;-67
2023/04/23 12:25:36;;;;;;;4.73;2.97;;;;;;;;;;5013097;28;20193;-67
2023/04/23 12:28:03;;;;;;;5.10;2.90;;;;;;;;;;5013001;28;20193;-68
2023/04/23 12:30:33;;;;;;;4.57;3.13;;;;;;;;;;5012894;28;20220;-67
2023/04/23 12:33:00;;;;;;;4.50;2.93;;;;;;;;;;5012063;28;20674;-67
2023/04/23 12:35:37;;;;;;;6.37;3.40;;;;;;;;;;5012808;28;20193;-67
2023/04/23 12:38:19;;;;;;;5.03;3.43;;;;;;;;;;5030410;28;20234;-68
2023/04/23 12:40:46;;;;;;;8.20;3.30;;;;;;;;;;5012661;28;20274;-67
2023/04/23 12:43:13;;;;;;;6.47;3.47;;;;;;;;;;5030186;28;20245;-68
2023/04/23 12:45:40;;;;;;;8.47;3.10;;;;;;;;;;5029951;28;20675;-68
2023/04/23 12:48:06;;;;;;;4.87;3.20;;;;;;;;;;5030214;28;20202;-69
2023/04/23 12:50:33;;;;;;;5.37;3.33;;;;;;;;;;5030041;28;20209;-69
2023/04/23 12:53:00;;;;;;;6.57;3.60;;;;;;;;;;5012457;28;20193;-69
2023/04/23 12:55:26;;;;;;;7.00;3.30;;;;;;;;;;5030045;28;20187;-68
2023/04/23 12:57:53;;;;;;;4.50;3.40;;;;;;;;;;5030056;28;20191;-69
2023/04/23 13:00:20;;;;;;;4.90;2.83;;;;;;;;;;5029991;28;20191;-68
2023/04/23 13:02:47;;;;;;;3.63;2.87;;;;;;;;;;5029962;28;20191;-67
2023/04/23 13:05:14;;;;;;;6.67;3.10;;;;;;;;;;5012110;28;20197;-68
2023/04/23 13:07:42;;;;;;;3.50;2.73;;;;;;;;;;5029767;28;20183;-68
2023/04/23 13:10:16;;;;;;;5.53;2.87;;;;;;;;;;5029631;28;20191;-67
2023/04/23 13:12:43;;;;;;;5.37;3.23;;;;;;;;;;5029742;28;20265;-67
2023/04/23 13:15:11;;;;;;;3.33;2.97;;;;;;;;;;5029361;28;20182;-68
2023/04/23 13:17:38;;;;;;;6.30;3.40;;;;;;;;;;5011705;28;20234;-68
2023/04/23 13:20:06;;;;;;;5.67;3.07;;;;;;;;;;5029559;28;20185;-69
2023/04/23 13:22:32;;;;;;;8.13;3.30;;;;;;;;;;5029729;28;20605;-68
2023/04/23 13:24:59;;;;;;;7.47;2.97;;;;;;;;;;5029591;28;20196;-68
2023/04/23 13:27:27;;;;;;;4.77;2.60;;;;;;;;;;5012120;28;20225;-68
2023/04/23 13:29:54;;;;;;;7.90;2.90;;;;;;;;;;5011935;28;20587;-68
2023/04/23 13:32:22;;;;;;;3.83;2.50;;;;;;;;;;5029631;28;20305;-68
2023/04/23 13:34:49;;;;;;;3.07;2.57;;;;;;;;;;5029340;28;20221;-68
2023/04/23 13:37:16;;;;;;;4.27;3.00;;;;;;;;;;5012030;28;20175;-68
2023/04/23 13:39:43;;;;;;;5.90;2.67;;;;;;;;;;5011742;28;20286;-68
2023/04/23 13:42:11;;;;;;;5.73;2.80;;;;;;;;;;5029159;28;20180;-67
2023/04/23 13:44:37;;;;;;;7.07;3.03;;;;;;;;;;5028631;28;20191;-67
2023/04/23 13:47:04;;;;;;;5.13;3.07;;;;;;;;;;5011642;28;20226;-67
2023/04/23 13:49:31;;;;;;;5.00;2.80;;;;;;;;;;5011735;28;20218;-68
2023/04/23 13:51:59;;;;;;;3.70;3.00;;;;;;;;;;5011726;28;20284;-70
2023/04/23 13:54:26;;;;;;;5.53;2.83;;;;;;;;;;5029474;28;20271;-67
2023/04/23 13:56:54;;;;;;;7.77;2.60;;;;;;;;;;5029005;28;20246;-70
2023/04/23 13:59:21;;;;;;;5.33;2.80;;;;;;;;;;5011562;28;20669;-69
2023/04/23 14:01:48;;;;;;;5.47;3.03;;;;;;;;;;5029298;28;20607;-69
2023/04/23 14:04:16;;;;;;;4.47;3.07;;;;;;;;;;5029289;28;20224;-69
2023/04/23 14:06:42;;;;;;;5.03;3.03;;;;;;;;;;4995173;28;20773;-69
2023/04/23 14:09:09;;;;;;;4.83;2.70;;;;;;;;;;5029140;28;20219;-69
2023/04/23 14:11:36;;;;;;;6.57;2.60;;;;;;;;;;5029237;28;20300;-69
2023/04/23 14:14:02;;;;;;;7.43;2.63;;;;;;;;;;5028909;28;20197;-70
2023/04/23 14:16:29;;;;;;;3.63;2.60;;;;;;;;;;5028861;28;20195;-69
2023/04/23 14:18:56;;;;;;;4.27;2.73;;;;;;;;;;5028992;28;20222;-68
2023/04/23 14:21:23;;;;;;;3.90;2.50;;;;;;;;;;5011341;28;20218;-68
2023/04/23 14:24:07;;;;;;;4.77;2.50;;;;;;;;;;5029077;28;20520;-70
2023/04/23 14:26:34;;;;;;;2.90;2.30;;;;;;;;;;5011495;28;20247;-69
2023/04/23 14:29:16;;;;;;;6.33;2.80;;;;;;;;;;5012003;28;20195;-69
2023/04/23 14:31:43;;;;;;;2.87;2.57;;;;;;;;;;5028599;28;20205;-70
2023/04/23 14:34:10;;;;;;;4.60;2.50;;;;;;;;;;5029035;28;20216;-70
2023/04/23 14:36:37;;;;;;;4.73;2.60;;;;;;;;;;5028913;28;20201;-68
2023/04/23 14:39:04;;;;;;;4.17;2.60;;;;;;;;;;5028927;28;20648;-69
2023/04/23 14:41:31;;;;;;;2.93;2.60;;;;;;;;;;5011077;28;20197;-69
2023/04/23 14:43:59;;;;;;;3.40;2.10;;;;;;;;;;4994882;28;20191;-68
2023/04/23 14:46:26;;;;;;;3.30;2.53;;;;;;;;;;5011095;28;20214;-69
2023/04/23 14:48:52;;;;;;;4.93;2.40;;;;;;;;;;5028846;28;20232;-69
2023/04/23 14:51:19;;;;;;;4.00;2.53;;;;;;;;;;5028565;28;20225;-69
2023/04/23 14:53:46;;;;;;;3.50;2.20;;;;;;;;;;5011327;28;20655;-71
2023/04/23 14:56:12;;;;;;;4.57;2.50;;;;;;;;;;5013192;28;20198;-69
2023/04/23 14:58:40;;;;;;;5.20;2.77;;;;;;;;;;5032294;28;20203;-70
2023/04/23 15:01:07;;;;;;;5.33;2.50;;;;;;;;;;5032230;28;20246;-68
2023/04/23 15:03:35;;;;;;;4.97;2.87;;;;;;;;;;5032220;28;20184;-70
2023/04/23 15:06:05;;;;;;;5.27;2.40;;;;;;;;;;5014735;28;20183;-70
2023/04/23 15:08:32;;;;;;;5.17;2.60;;;;;;;;;;5031992;28;20262;-69
2023/04/23 15:10:59;;;;;;;5.37;2.50;;;;;;;;;;5014412;28;20203;-70